sensor_id;sensor_type;location;lat;lon;timestamp;temperature;humidity
21108;DHT22;10712;52.944;9.098;2022-08-03T00:00:18;20.00;76.70
21108;DHT22;10712;52.944;9.098;2022-08-03T00:02:44;20.00;76.80
21108;DHT22;10712;52.944;9.098;2022-08-03T00:05:10;20.00;76.90
21108;DHT22;10712;52.944;9.098;2022-08-03T00:07:36;19.90;77.00
21108;DHT22;10712;52.944;9.098;2022-08-03T00:10:03;19.90;77.20
21108;DHT22;10712;52.944;9.098;2022-08-03T00:12:29;19.90;77.30
21108;DHT22;10712;52.944;9.098;2022-08-03T00:14:55;19.80;77.30
21108;DHT22;10712;52.944;9.098;2022-08-03T00:17:21;19.80;77.40
21108;DHT22;10712;52.944;9.098;2022-08-03T00:19:46;19.80;77.40
21108;DHT22;10712;52.944;9.098;2022-08-03T00:22:12;19.80;77.40
21108;DHT22;10712;52.944;9.098;2022-08-03T00:24:38;19.70;77.50
21108;DHT22;10712;52.944;9.098;2022-08-03T00:27:04;19.70;77.60
21108;DHT22;10712;52.944;9.098;2022-08-03T00:29:29;19.60;77.70
21108;DHT22;10712;52.944;9.098;2022-08-03T00:31:55;19.60;77.80
21108;DHT22;10712;52.944;9.098;2022-08-03T00:34:21;19.60;77.90
21108;DHT22;10712;52.944;9.098;2022-08-03T00:36:47;19.50;78.00
21108;DHT22;10712;52.944;9.098;2022-08-03T00:39:13;19.50;78.00
21108;DHT22;10712;52.944;9.098;2022-08-03T00:41:38;19.50;78.20
21108;DHT22;10712;52.944;9.098;2022-08-03T00:44:04;19.40;78.40
21108;DHT22;10712;52.944;9.098;2022-08-03T00:46:30;19.40;78.40
21108;DHT22;10712;52.944;9.098;2022-08-03T00:48:56;19.40;78.50
21108;DHT22;10712;52.944;9.098;2022-08-03T00:51:22;19.40;78.60
21108;DHT22;10712;52.944;9.098;2022-08-03T00:53:48;19.30;78.70
21108;DHT22;10712;52.944;9.098;2022-08-03T00:56:16;19.30;78.80
21108;DHT22;10712;52.944;9.098;2022-08-03T00:58:45;19.30;78.80
21108;DHT22;10712;52.944;9.098;2022-08-03T01:01:12;19.20;78.90
21108;DHT22;10712;52.944;9.098;2022-08-03T01:03:38;19.20;79.00
21108;DHT22;10712;52.944;9.098;2022-08-03T01:06:35;19.20;79.10
21108;DHT22;10712;52.944;9.098;2022-08-03T01:09:26;19.20;79.10
21108;DHT22;10712;52.944;9.098;2022-08-03T01:12:25;19.20;79.10
21108;DHT22;10712;52.944;9.098;2022-08-03T01:17:50;19.10;79.10
21108;DHT22;10712;52.944;9.098;2022-08-03T01:20:28;19.00;79.20
21108;DHT22;10712;52.944;9.098;2022-08-03T01:32:25;18.80;80.30
21108;DHT22;10712;52.944;9.098;2022-08-03T01:35:05;18.80;80.30
21108;DHT22;10712;52.944;9.098;2022-08-03T01:37:46;18.80;80.40
21108;DHT22;10712;52.944;9.098;2022-08-03T01:40:16;18.70;80.50
21108;DHT22;10712;52.944;9.098;2022-08-03T01:42:46;18.70;80.50
21108;DHT22;10712;52.944;9.098;2022-08-03T01:45:15;18.70;80.50
21108;DHT22;10712;52.944;9.098;2022-08-03T01:47:44;18.70;80.50
21108;DHT22;10712;52.944;9.098;2022-08-03T01:50:13;18.60;80.70
21108;DHT22;10712;52.944;9.098;2022-08-03T01:52:43;18.60;80.80
21108;DHT22;10712;52.944;9.098;2022-08-03T01:55:11;18.60;80.90
21108;DHT22;10712;52.944;9.098;2022-08-03T01:57:39;18.60;81.00
21108;DHT22;10712;52.944;9.098;2022-08-03T02:00:09;18.60;81.10
21108;DHT22;10712;52.944;9.098;2022-08-03T02:02:41;18.60;81.00
21108;DHT22;10712;52.944;9.098;2022-08-03T02:05:10;18.50;81.30
21108;DHT22;10712;52.944;9.098;2022-08-03T02:07:40;18.50;81.40
21108;DHT22;10712;52.944;9.098;2022-08-03T02:10:07;18.50;81.30
21108;DHT22;10712;52.944;9.098;2022-08-03T02:12:36;18.50;81.30
21108;DHT22;10712;52.944;9.098;2022-08-03T02:15:05;18.50;81.30
21108;DHT22;10712;52.944;9.098;2022-08-03T02:17:32;18.40;81.40
21108;DHT22;10712;52.944;9.098;2022-08-03T02:20:00;18.40;81.40
21108;DHT22;10712;52.944;9.098;2022-08-03T02:22:28;18.40;81.50
21108;DHT22;10712;52.944;9.098;2022-08-03T02:24:55;18.30;81.60
21108;DHT22;10712;52.944;9.098;2022-08-03T02:27:26;18.30;81.70
21108;DHT22;10712;52.944;9.098;2022-08-03T02:30:06;18.30;81.80
21108;DHT22;10712;52.944;9.098;2022-08-03T02:32:36;18.30;81.70
21108;DHT22;10712;52.944;9.098;2022-08-03T02:35:08;18.30;81.80
21108;DHT22;10712;52.944;9.098;2022-08-03T02:37:44;18.30;81.70
21108;DHT22;10712;52.944;9.098;2022-08-03T02:40:14;18.20;81.80
21108;DHT22;10712;52.944;9.098;2022-08-03T02:42:43;18.20;81.80
21108;DHT22;10712;52.944;9.098;2022-08-03T02:45:11;18.10;81.80
21108;DHT22;10712;52.944;9.098;2022-08-03T02:47:41;18.00;82.20
21108;DHT22;10712;52.944;9.098;2022-08-03T02:50:11;18.00;82.60
21108;DHT22;10712;52.944;9.098;2022-08-03T02:52:40;18.00;82.40
21108;DHT22;10712;52.944;9.098;2022-08-03T02:55:10;18.00;82.60
21108;DHT22;10712;52.944;9.098;2022-08-03T02:57:38;18.00;82.60
21108;DHT22;10712;52.944;9.098;2022-08-03T03:00:06;18.00;82.60
21108;DHT22;10712;52.944;9.098;2022-08-03T03:02:34;18.00;82.60
21108;DHT22;10712;52.944;9.098;2022-08-03T03:05:01;17.90;82.60
21108;DHT22;10712;52.944;9.098;2022-08-03T03:07:28;17.90;82.60
21108;DHT22;10712;52.944;9.098;2022-08-03T03:09:56;17.90;82.60
21108;DHT22;10712;52.944;9.098;2022-08-03T03:12:23;17.90;82.60
21108;DHT22;10712;52.944;9.098;2022-08-03T03:14:51;17.90;82.80
21108;DHT22;10712;52.944;9.098;2022-08-03T03:17:17;17.90;82.80
21108;DHT22;10712;52.944;9.098;2022-08-03T03:19:46;17.90;82.90
21108;DHT22;10712;52.944;9.098;2022-08-03T03:22:16;17.90;83.00
21108;DHT22;10712;52.944;9.098;2022-08-03T03:24:43;17.90;83.10
21108;DHT22;10712;52.944;9.098;2022-08-03T03:27:13;17.90;83.10
21108;DHT22;10712;52.944;9.098;2022-08-03T03:29:40;17.90;83.10
21108;DHT22;10712;52.944;9.098;2022-08-03T03:32:06;17.90;83.10
21108;DHT22;10712;52.944;9.098;2022-08-03T03:34:32;17.80;83.20
21108;DHT22;10712;52.944;9.098;2022-08-03T03:36:58;17.80;83.30
21108;DHT22;10712;52.944;9.098;2022-08-03T03:39:26;17.80;83.30
21108;DHT22;10712;52.944;9.098;2022-08-03T03:41:52;17.80;83.30
21108;DHT22;10712;52.944;9.098;2022-08-03T03:44:18;17.80;83.30
21108;DHT22;10712;52.944;9.098;2022-08-03T03:46:44;17.80;83.20
21108;DHT22;10712;52.944;9.098;2022-08-03T03:49:10;17.80;83.30
21108;DHT22;10712;52.944;9.098;2022-08-03T03:51:37;17.80;83.40
21108;DHT22;10712;52.944;9.098;2022-08-03T03:54:03;17.80;83.50
21108;DHT22;10712;52.944;9.098;2022-08-03T03:56:32;17.80;83.40
21108;DHT22;10712;52.944;9.098;2022-08-03T03:58:58;17.80;83.30
21108;DHT22;10712;52.944;9.098;2022-08-03T04:01:24;17.80;83.30
21108;DHT22;10712;52.944;9.098;2022-08-03T04:03:50;17.80;83.30
21108;DHT22;10712;52.944;9.098;2022-08-03T04:06:16;17.80;83.30
21108;DHT22;10712;52.944;9.098;2022-08-03T04:09:01;17.80;83.30
21108;DHT22;10712;52.944;9.098;2022-08-03T04:11:54;17.80;83.30
21108;DHT22;10712;52.944;9.098;2022-08-03T04:14:29;17.80;83.30
21108;DHT22;10712;52.944;9.098;2022-08-03T04:17:02;17.70;83.40
21108;DHT22;10712;52.944;9.098;2022-08-03T04:19:44;17.70;83.40
21108;DHT22;10712;52.944;9.098;2022-08-03T04:22:17;17.70;83.50
21108;DHT22;10712;52.944;9.098;2022-08-03T04:24:51;17.70;83.60
21108;DHT22;10712;52.944;9.098;2022-08-03T04:27:25;17.70;83.60
21108;DHT22;10712;52.944;9.098;2022-08-03T04:29:56;17.70;83.80
21108;DHT22;10712;52.944;9.098;2022-08-03T04:32:32;17.80;83.90
21108;DHT22;10712;52.944;9.098;2022-08-03T04:35:00;17.80;83.90
21108;DHT22;10712;52.944;9.098;2022-08-03T04:40:06;17.80;83.80
21108;DHT22;10712;52.944;9.098;2022-08-03T04:42:36;17.80;83.70
21108;DHT22;10712;52.944;9.098;2022-08-03T04:45:04;17.90;83.70
21108;DHT22;10712;52.944;9.098;2022-08-03T04:47:32;17.90;83.70
21108;DHT22;10712;52.944;9.098;2022-08-03T04:50:02;17.90;83.60
21108;DHT22;10712;52.944;9.098;2022-08-03T04:52:29;17.90;83.50
21108;DHT22;10712;52.944;9.098;2022-08-03T04:54:55;18.00;83.40
21108;DHT22;10712;52.944;9.098;2022-08-03T04:57:22;18.00;83.30
21108;DHT22;10712;52.944;9.098;2022-08-03T04:59:49;18.00;83.30
21108;DHT22;10712;52.944;9.098;2022-08-03T05:02:21;18.00;83.30
21108;DHT22;10712;52.944;9.098;2022-08-03T05:04:48;18.10;83.40
21108;DHT22;10712;52.944;9.098;2022-08-03T05:07:16;18.10;83.50
21108;DHT22;10712;52.944;9.098;2022-08-03T05:09:43;18.10;83.40
21108;DHT22;10712;52.944;9.098;2022-08-03T05:12:10;18.10;83.40
21108;DHT22;10712;52.944;9.098;2022-08-03T05:14:36;18.20;83.10
21108;DHT22;10712;52.944;9.098;2022-08-03T05:17:07;18.20;82.80
21108;DHT22;10712;52.944;9.098;2022-08-03T05:19:33;18.20;82.60
21108;DHT22;10712;52.944;9.098;2022-08-03T05:21:59;18.20;82.40
21108;DHT22;10712;52.944;9.098;2022-08-03T05:24:25;18.30;82.30
21108;DHT22;10712;52.944;9.098;2022-08-03T05:26:52;18.40;82.40
21108;DHT22;10712;52.944;9.098;2022-08-03T05:29:17;18.40;82.40
21108;DHT22;10712;52.944;9.098;2022-08-03T05:31:43;18.40;82.30
21108;DHT22;10712;52.944;9.098;2022-08-03T05:34:09;18.50;82.10
21108;DHT22;10712;52.944;9.098;2022-08-03T05:36:35;18.50;81.90
21108;DHT22;10712;52.944;9.098;2022-08-03T05:39:01;18.60;82.00
21108;DHT22;10712;52.944;9.098;2022-08-03T05:41:27;18.60;82.00
21108;DHT22;10712;52.944;9.098;2022-08-03T05:43:53;18.70;82.20
21108;DHT22;10712;52.944;9.098;2022-08-03T05:46:22;18.70;82.30
21108;DHT22;10712;52.944;9.098;2022-08-03T05:48:48;18.80;82.30
21108;DHT22;10712;52.944;9.098;2022-08-03T05:51:15;18.90;82.50
21108;DHT22;10712;52.944;9.098;2022-08-03T05:53:41;19.00;82.50
21108;DHT22;10712;52.944;9.098;2022-08-03T05:56:08;19.00;82.40
21108;DHT22;10712;52.944;9.098;2022-08-03T05:58:35;19.10;82.30
21108;DHT22;10712;52.944;9.098;2022-08-03T06:01:00;19.20;82.30
21108;DHT22;10712;52.944;9.098;2022-08-03T06:03:26;19.30;82.20
21108;DHT22;10712;52.944;9.098;2022-08-03T06:05:53;19.40;82.20
21108;DHT22;10712;52.944;9.098;2022-08-03T06:08:21;19.50;82.10
21108;DHT22;10712;52.944;9.098;2022-08-03T06:10:48;19.50;82.00
21108;DHT22;10712;52.944;9.098;2022-08-03T06:13:15;19.60;81.90
21108;DHT22;10712;52.944;9.098;2022-08-03T06:15:41;19.70;82.00
21108;DHT22;10712;52.944;9.098;2022-08-03T06:18:07;19.70;81.80
21108;DHT22;10712;52.944;9.098;2022-08-03T06:20:33;19.80;81.50
21108;DHT22;10712;52.944;9.098;2022-08-03T06:22:59;19.90;81.50
21108;DHT22;10712;52.944;9.098;2022-08-03T06:25:25;20.00;81.40
21108;DHT22;10712;52.944;9.098;2022-08-03T06:27:51;20.10;81.20
21108;DHT22;10712;52.944;9.098;2022-08-03T06:30:17;20.20;80.70
21108;DHT22;10712;52.944;9.098;2022-08-03T06:32:43;20.30;80.40
21108;DHT22;10712;52.944;9.098;2022-08-03T06:35:09;20.40;80.00
21108;DHT22;10712;52.944;9.098;2022-08-03T06:37:45;20.50;79.70
21108;DHT22;10712;52.944;9.098;2022-08-03T06:40:17;20.60;79.50
21108;DHT22;10712;52.944;9.098;2022-08-03T06:42:45;20.70;79.10
21108;DHT22;10712;52.944;9.098;2022-08-03T06:45:11;20.90;78.90
21108;DHT22;10712;52.944;9.098;2022-08-03T06:47:38;21.00;78.30
21108;DHT22;10712;52.944;9.098;2022-08-03T06:50:05;21.10;77.70
21108;DHT22;10712;52.944;9.098;2022-08-03T06:52:32;21.20;77.30
21108;DHT22;10712;52.944;9.098;2022-08-03T06:54:58;21.30;76.90
21108;DHT22;10712;52.944;9.098;2022-08-03T06:57:24;21.40;76.00
21108;DHT22;10712;52.944;9.098;2022-08-03T06:59:50;21.50;75.60
21108;DHT22;10712;52.944;9.098;2022-08-03T07:02:16;21.60;75.10
21108;DHT22;10712;52.944;9.098;2022-08-03T07:04:47;21.70;74.90
21108;DHT22;10712;52.944;9.098;2022-08-03T07:07:13;21.80;74.70
21108;DHT22;10712;52.944;9.098;2022-08-03T07:09:38;21.90;74.50
21108;DHT22;10712;52.944;9.098;2022-08-03T07:12:04;22.00;73.70
21108;DHT22;10712;52.944;9.098;2022-08-03T07:14:31;22.10;73.50
21108;DHT22;10712;52.944;9.098;2022-08-03T07:16:56;22.20;73.30
21108;DHT22;10712;52.944;9.098;2022-08-03T07:19:22;22.30;73.10
21108;DHT22;10712;52.944;9.098;2022-08-03T07:21:48;22.40;72.90
21108;DHT22;10712;52.944;9.098;2022-08-03T07:24:14;22.50;72.60
21108;DHT22;10712;52.944;9.098;2022-08-03T07:26:40;22.60;72.00
21108;DHT22;10712;52.944;9.098;2022-08-03T07:29:06;22.70;71.90
21108;DHT22;10712;52.944;9.098;2022-08-03T07:31:32;22.70;71.90
21108;DHT22;10712;52.944;9.098;2022-08-03T07:34:06;22.90;71.80
21108;DHT22;10712;52.944;9.098;2022-08-03T07:36:32;23.00;71.10
21108;DHT22;10712;52.944;9.098;2022-08-03T07:38:58;23.10;70.70
21108;DHT22;10712;52.944;9.098;2022-08-03T07:41:23;23.20;70.50
21108;DHT22;10712;52.944;9.098;2022-08-03T07:43:49;23.30;70.20
21108;DHT22;10712;52.944;9.098;2022-08-03T07:46:15;23.40;69.30
21108;DHT22;10712;52.944;9.098;2022-08-03T07:48:41;23.50;69.10
21108;DHT22;10712;52.944;9.098;2022-08-03T07:51:07;23.60;69.00
21108;DHT22;10712;52.944;9.098;2022-08-03T07:53:33;23.80;68.80
21108;DHT22;10712;52.944;9.098;2022-08-03T07:55:58;23.90;68.60
21108;DHT22;10712;52.944;9.098;2022-08-03T07:58:24;23.90;68.60
21108;DHT22;10712;52.944;9.098;2022-08-03T08:00:50;24.00;68.30
21108;DHT22;10712;52.944;9.098;2022-08-03T08:03:17;24.00;68.30
21108;DHT22;10712;52.944;9.098;2022-08-03T08:05:43;24.20;68.00
21108;DHT22;10712;52.944;9.098;2022-08-03T08:08:09;24.30;67.90
21108;DHT22;10712;52.944;9.098;2022-08-03T08:10:35;24.40;67.60
21108;DHT22;10712;52.944;9.098;2022-08-03T08:13:03;24.60;67.30
21108;DHT22;10712;52.944;9.098;2022-08-03T08:15:29;24.70;66.90
21108;DHT22;10712;52.944;9.098;2022-08-03T08:17:58;24.80;66.70
21108;DHT22;10712;52.944;9.098;2022-08-03T08:20:33;24.90;66.00
21108;DHT22;10712;52.944;9.098;2022-08-03T08:23:04;25.00;65.70
21108;DHT22;10712;52.944;9.098;2022-08-03T08:25:32;25.00;65.60
21108;DHT22;10712;52.944;9.098;2022-08-03T08:28:00;25.10;65.10
21108;DHT22;10712;52.944;9.098;2022-08-03T08:30:28;25.20;65.10
21108;DHT22;10712;52.944;9.098;2022-08-03T08:32:55;25.20;64.80
21108;DHT22;10712;52.944;9.098;2022-08-03T08:35:22;25.30;64.60
21108;DHT22;10712;52.944;9.098;2022-08-03T08:37:48;25.30;64.60
21108;DHT22;10712;52.944;9.098;2022-08-03T08:40:14;25.30;64.60
21108;DHT22;10712;52.944;9.098;2022-08-03T08:42:42;25.40;65.00
21108;DHT22;10712;52.944;9.098;2022-08-03T08:45:09;25.40;64.90
21108;DHT22;10712;52.944;9.098;2022-08-03T08:47:38;25.50;64.70
21108;DHT22;10712;52.944;9.098;2022-08-03T08:50:07;25.60;64.70
21108;DHT22;10712;52.944;9.098;2022-08-03T08:52:34;25.70;64.70
21108;DHT22;10712;52.944;9.098;2022-08-03T08:55:06;25.80;64.30
21108;DHT22;10712;52.944;9.098;2022-08-03T08:57:36;25.90;64.00
21108;DHT22;10712;52.944;9.098;2022-08-03T09:00:10;26.00;63.90
21108;DHT22;10712;52.944;9.098;2022-08-03T09:02:40;26.10;64.10
21108;DHT22;10712;52.944;9.098;2022-08-03T09:05:11;26.20;63.80
21108;DHT22;10712;52.944;9.098;2022-08-03T09:07:39;26.30;63.40
21108;DHT22;10712;52.944;9.098;2022-08-03T09:10:07;26.30;63.30
21108;DHT22;10712;52.944;9.098;2022-08-03T09:12:50;26.40;63.30
21108;DHT22;10712;52.944;9.098;2022-08-03T09:17:58;26.60;63.10
21108;DHT22;10712;52.944;9.098;2022-08-03T09:20:30;26.70;62.60
21108;DHT22;10712;52.944;9.098;2022-08-03T09:23:02;26.80;62.20
21108;DHT22;10712;52.944;9.098;2022-08-03T09:25:40;26.90;62.10
21108;DHT22;10712;52.944;9.098;2022-08-03T09:28:17;26.90;61.90
21108;DHT22;10712;52.944;9.098;2022-08-03T09:30:56;26.90;62.10
21108;DHT22;10712;52.944;9.098;2022-08-03T09:33:24;26.90;61.90
21108;DHT22;10712;52.944;9.098;2022-08-03T09:35:50;26.90;61.70
21108;DHT22;10712;52.944;9.098;2022-08-03T09:38:18;27.00;62.20
21108;DHT22;10712;52.944;9.098;2022-08-03T09:40:50;27.00;62.10
21108;DHT22;10712;52.944;9.098;2022-08-03T09:43:17;27.10;61.90
21108;DHT22;10712;52.944;9.098;2022-08-03T09:45:44;27.20;61.10
21108;DHT22;10712;52.944;9.098;2022-08-03T09:48:27;27.20;61.20
21108;DHT22;10712;52.944;9.098;2022-08-03T09:50:59;27.20;61.00
21108;DHT22;10712;52.944;9.098;2022-08-03T09:53:26;27.30;61.30
21108;DHT22;10712;52.944;9.098;2022-08-03T09:56:01;27.30;61.00
21108;DHT22;10712;52.944;9.098;2022-08-03T09:58:29;27.40;60.30
21108;DHT22;10712;52.944;9.098;2022-08-03T10:03:26;27.50;60.70
21108;DHT22;10712;52.944;9.098;2022-08-03T10:05:55;27.50;60.70
21108;DHT22;10712;52.944;9.098;2022-08-03T10:08:21;27.60;60.00
21108;DHT22;10712;52.944;9.098;2022-08-03T10:10:49;27.60;60.10
21108;DHT22;10712;52.944;9.098;2022-08-03T10:13:20;27.60;60.40
21108;DHT22;10712;52.944;9.098;2022-08-03T10:15:46;27.70;60.10
21108;DHT22;10712;52.944;9.098;2022-08-03T10:18:12;27.80;59.80
21108;DHT22;10712;52.944;9.098;2022-08-03T10:21:02;27.80;60.00
21108;DHT22;10712;52.944;9.098;2022-08-03T10:23:34;27.90;60.10
21108;DHT22;10712;52.944;9.098;2022-08-03T10:26:03;28.00;60.00
21108;DHT22;10712;52.944;9.098;2022-08-03T10:28:39;28.20;59.80
21108;DHT22;10712;52.944;9.098;2022-08-03T10:31:10;28.20;59.10
21108;DHT22;10712;52.944;9.098;2022-08-03T10:33:42;28.30;58.10
21108;DHT22;10712;52.944;9.098;2022-08-03T10:36:12;28.30;57.80
21108;DHT22;10712;52.944;9.098;2022-08-03T10:38:49;28.40;57.90
21108;DHT22;10712;52.944;9.098;2022-08-03T10:41:29;28.40;57.50
21108;DHT22;10712;52.944;9.098;2022-08-03T10:44:10;28.40;57.80
21108;DHT22;10712;52.944;9.098;2022-08-03T10:46:41;28.40;57.70
21108;DHT22;10712;52.944;9.098;2022-08-03T10:49:11;28.50;57.70
21108;DHT22;10712;52.944;9.098;2022-08-03T10:51:41;28.50;57.90
21108;DHT22;10712;52.944;9.098;2022-08-03T10:54:41;28.50;57.60
21108;DHT22;10712;52.944;9.098;2022-08-03T10:57:48;28.60;57.10
21108;DHT22;10712;52.944;9.098;2022-08-03T11:00:21;28.60;56.80
21108;DHT22;10712;52.944;9.098;2022-08-03T11:03:08;28.70;56.10
21108;DHT22;10712;52.944;9.098;2022-08-03T11:08:24;28.70;57.30
21108;DHT22;10712;52.944;9.098;2022-08-03T11:10:53;28.80;57.40
21108;DHT22;10712;52.944;9.098;2022-08-03T11:13:28;28.90;57.20
21108;DHT22;10712;52.944;9.098;2022-08-03T11:16:00;29.00;56.80
21108;DHT22;10712;52.944;9.098;2022-08-03T11:18:28;29.10;55.80
21108;DHT22;10712;52.944;9.098;2022-08-03T11:20:58;29.10;55.40
21108;DHT22;10712;52.944;9.098;2022-08-03T11:23:57;29.20;54.90
21108;DHT22;10712;52.944;9.098;2022-08-03T11:26:23;29.20;54.10
21108;DHT22;10712;52.944;9.098;2022-08-03T11:28:49;29.20;54.50
21108;DHT22;10712;52.944;9.098;2022-08-03T11:34:05;29.30;55.20
21108;DHT22;10712;52.944;9.098;2022-08-03T11:39:48;29.40;54.00
21108;DHT22;10712;52.944;9.098;2022-08-03T11:44:51;29.60;52.90
21108;DHT22;10712;52.944;9.098;2022-08-03T11:47:20;29.70;52.90
21108;DHT22;10712;52.944;9.098;2022-08-03T11:49:48;29.70;52.30
21108;DHT22;10712;52.944;9.098;2022-08-03T11:52:17;29.70;52.50
21108;DHT22;10712;52.944;9.098;2022-08-03T11:54:44;29.70;52.70
21108;DHT22;10712;52.944;9.098;2022-08-03T11:57:10;29.70;53.00
21108;DHT22;10712;52.944;9.098;2022-08-03T11:59:36;29.70;53.30
21108;DHT22;10712;52.944;9.098;2022-08-03T12:02:09;29.80;53.00
21108;DHT22;10712;52.944;9.098;2022-08-03T12:04:55;29.80;53.00
21108;DHT22;10712;52.944;9.098;2022-08-03T12:07:23;29.90;53.30
21108;DHT22;10712;52.944;9.098;2022-08-03T12:10:12;30.00;53.00
21108;DHT22;10712;52.944;9.098;2022-08-03T12:12:39;30.00;52.30
21108;DHT22;10712;52.944;9.098;2022-08-03T12:15:07;30.10;51.90
21108;DHT22;10712;52.944;9.098;2022-08-03T12:17:35;30.10;51.60
21108;DHT22;10712;52.944;9.098;2022-08-03T12:20:04;30.20;52.10
21108;DHT22;10712;52.944;9.098;2022-08-03T12:22:34;30.20;51.60
21108;DHT22;10712;52.944;9.098;2022-08-03T12:25:03;30.30;51.00
21108;DHT22;10712;52.944;9.098;2022-08-03T12:27:33;30.30;51.60
21108;DHT22;10712;52.944;9.098;2022-08-03T12:30:01;30.30;51.50
21108;DHT22;10712;52.944;9.098;2022-08-03T12:32:29;30.40;51.50
21108;DHT22;10712;52.944;9.098;2022-08-03T12:34:57;30.40;51.10
21108;DHT22;10712;52.944;9.098;2022-08-03T12:37:25;30.40;50.70
21108;DHT22;10712;52.944;9.098;2022-08-03T12:39:56;30.50;49.60
21108;DHT22;10712;52.944;9.098;2022-08-03T12:42:36;30.50;49.40
21108;DHT22;10712;52.944;9.098;2022-08-03T12:45:20;30.60;49.60
21108;DHT22;10712;52.944;9.098;2022-08-03T12:47:49;30.60;49.20
21108;DHT22;10712;52.944;9.098;2022-08-03T12:50:27;30.50;49.60
21108;DHT22;10712;52.944;9.098;2022-08-03T12:52:58;30.50;50.20
21108;DHT22;10712;52.944;9.098;2022-08-03T12:55:25;30.60;49.70
21108;DHT22;10712;52.944;9.098;2022-08-03T12:58:02;30.60;49.40
21108;DHT22;10712;52.944;9.098;2022-08-03T13:00:29;30.70;48.80
21108;DHT22;10712;52.944;9.098;2022-08-03T13:03:03;30.60;48.90
21108;DHT22;10712;52.944;9.098;2022-08-03T13:05:42;30.60;49.40
21108;DHT22;10712;52.944;9.098;2022-08-03T13:08:23;30.70;49.70
21108;DHT22;10712;52.944;9.098;2022-08-03T13:10:50;30.70;49.70
21108;DHT22;10712;52.944;9.098;2022-08-03T13:13:16;30.80;49.50
21108;DHT22;10712;52.944;9.098;2022-08-03T13:15:44;30.80;49.20
21108;DHT22;10712;52.944;9.098;2022-08-03T13:18:10;30.90;48.60
21108;DHT22;10712;52.944;9.098;2022-08-03T13:20:36;30.90;48.70
21108;DHT22;10712;52.944;9.098;2022-08-03T13:23:02;30.90;48.70
21108;DHT22;10712;52.944;9.098;2022-08-03T13:25:28;30.90;48.60
21108;DHT22;10712;52.944;9.098;2022-08-03T13:27:54;30.90;48.40
21108;DHT22;10712;52.944;9.098;2022-08-03T13:30:19;31.00;48.20
21108;DHT22;10712;52.944;9.098;2022-08-03T13:32:45;31.00;48.00
21108;DHT22;10712;52.944;9.098;2022-08-03T13:35:11;31.00;48.10
21108;DHT22;10712;52.944;9.098;2022-08-03T13:37:37;31.00;48.30
21108;DHT22;10712;52.944;9.098;2022-08-03T13:40:04;31.10;48.30
21108;DHT22;10712;52.944;9.098;2022-08-03T13:42:33;31.10;48.10
21108;DHT22;10712;52.944;9.098;2022-08-03T13:45:00;31.10;48.30
21108;DHT22;10712;52.944;9.098;2022-08-03T13:47:27;31.20;48.30
21108;DHT22;10712;52.944;9.098;2022-08-03T13:49:53;31.20;48.60
21108;DHT22;10712;52.944;9.098;2022-08-03T13:52:19;31.20;48.60
21108;DHT22;10712;52.944;9.098;2022-08-03T13:54:45;31.20;48.80
21108;DHT22;10712;52.944;9.098;2022-08-03T13:57:11;31.30;48.60
21108;DHT22;10712;52.944;9.098;2022-08-03T13:59:37;31.30;47.90
21108;DHT22;10712;52.944;9.098;2022-08-03T14:02:03;31.30;47.90
21108;DHT22;10712;52.944;9.098;2022-08-03T14:04:29;31.40;47.80
21108;DHT22;10712;52.944;9.098;2022-08-03T14:06:55;31.40;47.50
21108;DHT22;10712;52.944;9.098;2022-08-03T14:09:21;31.30;46.90
21108;DHT22;10712;52.944;9.098;2022-08-03T14:11:47;31.30;47.20
21108;DHT22;10712;52.944;9.098;2022-08-03T14:14:13;31.30;47.80
21108;DHT22;10712;52.944;9.098;2022-08-03T14:16:39;31.30;47.90
21108;DHT22;10712;52.944;9.098;2022-08-03T14:19:05;31.20;47.80
21108;DHT22;10712;52.944;9.098;2022-08-03T14:21:32;31.20;47.40
21108;DHT22;10712;52.944;9.098;2022-08-03T14:23:59;31.20;48.00
21108;DHT22;10712;52.944;9.098;2022-08-03T14:26:24;31.30;48.60
21108;DHT22;10712;52.944;9.098;2022-08-03T14:28:50;31.40;48.20
21108;DHT22;10712;52.944;9.098;2022-08-03T14:31:16;31.30;47.50
21108;DHT22;10712;52.944;9.098;2022-08-03T14:33:42;31.30;47.80
21108;DHT22;10712;52.944;9.098;2022-08-03T14:36:08;31.40;48.20
21108;DHT22;10712;52.944;9.098;2022-08-03T14:38:33;31.40;47.50
21108;DHT22;10712;52.944;9.098;2022-08-03T14:40:59;31.30;47.60
21108;DHT22;10712;52.944;9.098;2022-08-03T14:43:25;31.30;47.90
21108;DHT22;10712;52.944;9.098;2022-08-03T14:45:52;31.30;48.30
21108;DHT22;10712;52.944;9.098;2022-08-03T14:48:21;31.30;48.60
21108;DHT22;10712;52.944;9.098;2022-08-03T14:50:48;31.30;48.40
21108;DHT22;10712;52.944;9.098;2022-08-03T14:53:15;31.40;48.30
21108;DHT22;10712;52.944;9.098;2022-08-03T14:55:44;31.40;48.60
21108;DHT22;10712;52.944;9.098;2022-08-03T14:58:13;31.40;48.40
21108;DHT22;10712;52.944;9.098;2022-08-03T15:00:40;31.40;48.60
21108;DHT22;10712;52.944;9.098;2022-08-03T15:03:06;31.40;48.60
21108;DHT22;10712;52.944;9.098;2022-08-03T15:05:31;31.30;48.90
21108;DHT22;10712;52.944;9.098;2022-08-03T15:07:57;31.30;48.90
21108;DHT22;10712;52.944;9.098;2022-08-03T15:10:23;31.30;48.80
21108;DHT22;10712;52.944;9.098;2022-08-03T15:12:49;31.30;48.20
21108;DHT22;10712;52.944;9.098;2022-08-03T15:15:15;31.30;48.20
21108;DHT22;10712;52.944;9.098;2022-08-03T15:17:41;31.30;48.40
21108;DHT22;10712;52.944;9.098;2022-08-03T15:20:07;31.30;48.20
21108;DHT22;10712;52.944;9.098;2022-08-03T15:22:34;31.30;48.10
21108;DHT22;10712;52.944;9.098;2022-08-03T15:25:03;31.30;48.00
21108;DHT22;10712;52.944;9.098;2022-08-03T15:27:29;31.30;47.70
21108;DHT22;10712;52.944;9.098;2022-08-03T15:29:55;31.30;47.60
21108;DHT22;10712;52.944;9.098;2022-08-03T15:32:27;31.30;47.80
21108;DHT22;10712;52.944;9.098;2022-08-03T15:34:53;31.30;47.40
21108;DHT22;10712;52.944;9.098;2022-08-03T15:37:19;31.20;47.60
21108;DHT22;10712;52.944;9.098;2022-08-03T15:39:45;31.20;47.90
21108;DHT22;10712;52.944;9.098;2022-08-03T15:42:11;31.20;47.50
21108;DHT22;10712;52.944;9.098;2022-08-03T15:44:37;31.20;47.60
21108;DHT22;10712;52.944;9.098;2022-08-03T15:47:03;31.10;47.50
21108;DHT22;10712;52.944;9.098;2022-08-03T15:49:28;31.10;47.70
21108;DHT22;10712;52.944;9.098;2022-08-03T15:51:54;31.10;47.90
21108;DHT22;10712;52.944;9.098;2022-08-03T15:54:20;31.10;48.00
21108;DHT22;10712;52.944;9.098;2022-08-03T15:56:46;31.10;47.90
21108;DHT22;10712;52.944;9.098;2022-08-03T15:59:12;31.10;48.00
21108;DHT22;10712;52.944;9.098;2022-08-03T16:01:38;31.00;48.20
21108;DHT22;10712;52.944;9.098;2022-08-03T16:04:04;31.00;48.30
21108;DHT22;10712;52.944;9.098;2022-08-03T16:06:30;31.00;47.80
21108;DHT22;10712;52.944;9.098;2022-08-03T16:08:55;30.90;48.40
21108;DHT22;10712;52.944;9.098;2022-08-03T16:11:21;30.90;48.70